Strona główna
METAR-TAF:

METAR-TAF

Lotnisko :

Port lotniczy Nawakszut

Nawakszut, Mauretania

Szerokość geograficzna: 18-18-36N, Długość geograficzna: 015-58-11W, wysokość: 3 m

Aktualna obserwacja pogody

Raport powstał 1 godzina i 23 minut temu, godzina 15:00 UTC
Wiatr 16 kt od zachodnio-północny zachód
Temperatura 29°C
Wilgotność 70%
Ciśnienie 1010 hPa
Widzialność: 8000 m

METAR: GQNO 231500Z 30016KT 8000 NSC 29/23 Q1010 NOSIG

czas: 16:23 (16:23 UTC)

Prognoza

Raport powstał 5 godziny i 23 minut temu, godzina 11:00 UTC
Prognoza ważna od 23 godzina 12 UTC do 24 godzina 18 UTC
Wiatr 13 kt od północ
Widzialność: 8000 m
Prawdopodobieństwo 30% :
Przejściowo
od 23 godzina 12 UTC do 23 godzina 14 UTC
Widzialność: 3000 m
zawieja piaskowa

TAF: GQNO 231100Z 2312/2418 36013KT 8000 NSC PROB30 TEMPO 2312/2314 3000 BLSA

Obserwacja i prognoza pogody dla ponad 4000 lotnisk (raport METAR i TAF).

Dostępne stacje oznaczono żółtymi i czerwonymi punktami na mapie.

Najedź kursorem aby zobaczyć nazwę stacji.

Kliknij aby zobaczyć obserwacje i prognozy pogody.

Aby zmienić mapę: kliknij na zielony przycisk z czarnym krzyżykiem, aby powiększyć; na zielony przycisk z myślnikiem, aby pomniejszyć; na zielone strzałki, aby przejść do map sąsiednich.


METAR-TAF: